createdAt,value
2022-12-11T00:00:28.704Z,25.00
2022-12-11T00:02:56.698Z,24.33
2022-12-11T00:05:24.115Z,23.90
2022-12-11T00:07:50.959Z,33.00
2022-12-11T00:10:17.876Z,36.22
2022-12-11T00:12:44.577Z,34.80
2022-12-11T00:15:11.662Z,30.33
2022-12-11T00:17:38.831Z,35.13
2022-12-11T00:20:09.222Z,30.67
2022-12-11T00:22:35.943Z,36.20
2022-12-11T00:25:02.649Z,26.97
2022-12-11T00:27:29.641Z,37.70
2022-12-11T00:29:56.354Z,33.67
2022-12-11T00:32:23.032Z,29.50
2022-12-11T00:34:56.294Z,24.77
2022-12-11T00:37:23.602Z,28.13
2022-12-11T00:43:04.454Z,27.37
2022-12-11T00:45:31.234Z,34.07
2022-12-11T00:47:57.923Z,33.50
2022-12-11T00:50:24.633Z,34.17
2022-12-11T00:52:51.343Z,32.77
2022-12-11T00:55:18.363Z,30.90
2022-12-11T00:57:45.020Z,37.70
2022-12-11T01:00:12.899Z,27.70
2022-12-11T01:02:39.659Z,33.50
2022-12-11T01:05:06.829Z,30.27
2022-12-11T01:07:33.497Z,33.43
2022-12-11T01:10:18.737Z,32.83
2022-12-11T01:12:45.497Z,32.13
2022-12-11T01:15:12.562Z,30.67
2022-12-11T01:17:43.242Z,33.13
2022-12-11T01:20:10.273Z,28.03
2022-12-11T01:22:36.934Z,34.77
2022-12-11T01:25:04.183Z,30.77
2022-12-11T01:27:31.144Z,38.63
2022-12-11T01:29:57.836Z,31.63
2022-12-11T01:32:24.631Z,29.03
2022-12-11T01:34:51.408Z,29.03
2022-12-11T01:37:18.117Z,31.83
2022-12-11T01:39:44.747Z,34.17
2022-12-11T01:42:17.957Z,29.30
2022-12-11T01:44:47.141Z,34.37
2022-12-11T01:47:14.130Z,30.73
2022-12-11T01:49:41.934Z,33.03
2022-12-11T01:52:15.533Z,29.67
2022-12-11T01:54:45.781Z,36.93
2022-12-11T01:57:15.399Z,42.40
2022-12-11T01:59:46.502Z,32.97
2022-12-11T02:02:24.903Z,39.87
2022-12-11T02:04:51.738Z,37.80
2022-12-11T02:07:18.418Z,34.27
2022-12-11T02:09:47.690Z,34.63
2022-12-11T02:12:18.687Z,36.20
2022-12-11T02:14:45.318Z,26.93
2022-12-11T02:17:23.730Z,35.93
2022-12-11T02:20:15.442Z,26.87
2022-12-11T02:22:55.187Z,29.23
2022-12-11T02:25:33.784Z,31.00
2022-12-11T02:28:24.370Z,26.87
2022-12-11T02:30:57.238Z,35.57
2022-12-11T02:33:37.168Z,26.03
2022-12-11T02:36:05.513Z,25.80
2022-12-11T02:38:36.172Z,32.00
2022-12-11T02:41:05.667Z,27.73
2022-12-11T02:43:34.397Z,28.50
2022-12-11T02:46:05.826Z,34.37
2022-12-11T02:48:34.298Z,24.70
2022-12-11T02:51:01.897Z,30.80
2022-12-11T02:53:32.372Z,27.67
2022-12-11T02:56:24.591Z,29.10
2022-12-11T02:58:59.232Z,26.13
2022-12-11T03:01:27.441Z,25.43
2022-12-11T03:03:55.445Z,28.10
2022-12-11T03:06:26.826Z,29.30
2022-12-11T03:08:55.138Z,26.53
2022-12-11T03:11:21.928Z,25.40
2022-12-11T03:13:48.789Z,29.60
2022-12-11T03:16:32.451Z,26.03
2022-12-11T03:19:03.049Z,22.13
2022-12-11T03:21:40.441Z,24.93
2022-12-11T03:24:14.298Z,31.83
2022-12-11T03:26:45.504Z,26.73
2022-12-11T03:29:20.200Z,24.30
2022-12-11T03:32:03.527Z,23.33
2022-12-11T03:34:37.595Z,31.27
2022-12-11T03:37:06.381Z,21.07
2022-12-11T03:39:38.498Z,29.07
2022-12-11T03:42:08.332Z,30.50
2022-12-11T03:44:36.492Z,26.63
2022-12-11T03:47:06.547Z,28.13
2022-12-11T03:49:41.363Z,26.40
2022-12-11T03:52:11.626Z,19.60
2022-12-11T03:54:40.172Z,27.37
2022-12-11T03:57:10.000Z,28.97
2022-12-11T03:59:36.871Z,25.53
2022-12-11T04:02:11.257Z,24.63
2022-12-11T04:04:39.366Z,24.10
2022-12-11T04:07:06.708Z,29.73
2022-12-11T04:09:34.010Z,32.37
2022-12-11T04:12:01.037Z,29.07
2022-12-11T04:14:46.320Z,31.90
2022-12-11T04:17:32.974Z,25.30
2022-12-11T04:20:18.585Z,30.27
2022-12-11T04:23:03.991Z,29.40
2022-12-11T04:25:30.701Z,26.40
2022-12-11T04:27:57.428Z,30.87
2022-12-11T04:30:32.334Z,28.77
2022-12-11T04:33:01.095Z,26.97
2022-12-11T04:35:28.097Z,33.47
2022-12-11T04:37:54.842Z,30.63
2022-12-11T04:40:21.916Z,25.50
2022-12-11T04:42:48.780Z,30.80
2022-12-11T04:45:15.472Z,23.10
2022-12-11T04:47:42.591Z,22.50
2022-12-11T04:50:12.325Z,30.50
2022-12-11T04:52:39.177Z,29.90
2022-12-11T04:55:07.642Z,31.23
2022-12-11T04:57:34.996Z,27.23
2022-12-11T05:00:02.169Z,22.23
2022-12-11T05:02:28.991Z,24.97
2022-12-11T05:04:55.799Z,27.27
2022-12-11T05:07:22.490Z,37.60
2022-12-11T05:09:49.222Z,32.30
2022-12-11T05:12:15.859Z,23.57
2022-12-11T05:14:42.551Z,28.30
2022-12-11T05:17:09.297Z,27.33
2022-12-11T05:19:36.026Z,30.27
2022-12-11T05:22:02.683Z,28.63
2022-12-11T05:24:29.541Z,25.77
2022-12-11T05:26:56.246Z,30.90
2022-12-11T05:29:23.183Z,29.73
2022-12-11T05:31:50.130Z,27.23
2022-12-11T05:34:16.905Z,29.37
2022-12-11T05:36:43.558Z,29.90
2022-12-11T05:39:12.048Z,28.77
2022-12-11T05:41:38.970Z,30.57
2022-12-11T05:44:05.980Z,25.47
2022-12-11T05:46:32.800Z,27.67
2022-12-11T05:49:03.971Z,23.53
2022-12-11T05:51:31.646Z,30.50
2022-12-11T05:53:58.461Z,26.83
2022-12-11T05:56:33.534Z,27.47
2022-12-11T05:59:04.032Z,24.40
2022-12-11T06:01:34.908Z,22.40
2022-12-11T06:04:02.298Z,22.47
2022-12-11T06:06:29.370Z,26.97
2022-12-11T06:08:57.659Z,23.27
2022-12-11T06:11:26.124Z,27.73
2022-12-11T06:13:53.316Z,31.53
2022-12-11T06:16:21.024Z,22.67
2022-12-11T06:18:48.534Z,34.83
2022-12-11T06:21:27.921Z,28.50
2022-12-11T06:23:56.799Z,23.03
2022-12-11T06:26:24.170Z,27.97
2022-12-11T06:28:51.153Z,29.30
2022-12-11T06:31:19.043Z,28.70
2022-12-11T06:33:46.508Z,26.20
2022-12-11T06:36:16.363Z,26.07
2022-12-11T06:38:43.848Z,35.92
2022-12-11T06:41:11.518Z,31.60
2022-12-11T06:43:40.360Z,24.73
2022-12-11T06:46:13.051Z,29.43
2022-12-11T06:48:42.319Z,26.63
2022-12-11T06:51:12.399Z,24.33
2022-12-11T06:53:40.070Z,28.17
2022-12-11T06:56:13.063Z,29.57
2022-12-11T06:58:41.615Z,27.70
2022-12-11T07:01:26.286Z,24.40
2022-12-11T07:03:58.345Z,23.30
2022-12-11T07:06:26.972Z,27.70
2022-12-11T07:08:53.772Z,25.80
2022-12-11T07:11:21.760Z,18.57
2022-12-11T07:13:48.976Z,28.40
2022-12-11T07:16:17.018Z,29.23
2022-12-11T07:18:48.114Z,36.93
2022-12-11T07:21:15.181Z,30.57
2022-12-11T07:23:42.603Z,26.77
2022-12-11T07:26:16.149Z,20.17
2022-12-11T07:28:43.401Z,25.73
2022-12-11T07:31:13.498Z,22.97
2022-12-11T07:33:41.546Z,23.10
2022-12-11T07:36:11.903Z,26.73
2022-12-11T07:38:39.491Z,20.73
2022-12-11T07:41:09.235Z,23.60
2022-12-11T07:43:38.534Z,25.00
2022-12-11T07:46:08.213Z,24.33
2022-12-11T07:48:35.994Z,26.17
2022-12-11T07:51:11.296Z,26.13
2022-12-11T07:53:38.802Z,24.37
2022-12-11T07:56:05.896Z,36.10
2022-12-11T07:58:32.851Z,25.23
2022-12-11T08:00:59.657Z,32.17
2022-12-11T08:03:26.455Z,27.07
2022-12-11T08:05:53.543Z,28.57
2022-12-11T08:08:20.565Z,26.57
2022-12-11T08:10:47.399Z,29.17
2022-12-11T08:13:14.443Z,27.90
2022-12-11T08:15:41.709Z,26.27
2022-12-11T08:18:11.117Z,22.60
2022-12-11T08:20:39.296Z,32.90
2022-12-11T08:23:06.175Z,26.10
2022-12-11T08:25:33.061Z,29.60
2022-12-11T08:27:59.792Z,27.13
2022-12-11T08:30:26.512Z,31.53
2022-12-11T08:32:53.355Z,40.47
2022-12-11T08:35:20.114Z,38.83
2022-12-11T08:37:47.491Z,30.33
2022-12-11T08:40:14.471Z,38.03
2022-12-11T08:42:41.297Z,34.27
2022-12-11T08:45:12.065Z,42.47
2022-12-11T08:47:39.029Z,35.40
2022-12-11T08:50:06.204Z,35.73
2022-12-11T08:52:34.961Z,33.13
2022-12-11T08:55:01.791Z,32.43
2022-12-11T08:57:28.850Z,38.27
2022-12-11T08:59:55.533Z,41.53
2022-12-11T09:02:22.377Z,33.67
2022-12-11T09:04:49.131Z,39.57
2022-12-11T09:07:15.889Z,37.07
2022-12-11T09:09:49.705Z,40.07
2022-12-11T09:12:17.178Z,36.97
2022-12-11T09:14:44.118Z,44.97
2022-12-11T09:17:10.772Z,36.97
2022-12-11T09:19:37.584Z,39.73
2022-12-11T09:22:04.238Z,34.80
2022-12-11T09:24:31.020Z,37.97
2022-12-11T09:26:57.714Z,37.57
2022-12-11T09:29:24.503Z,48.93
2022-12-11T09:31:51.200Z,37.43
2022-12-11T09:34:17.965Z,36.53
2022-12-11T09:36:44.769Z,35.03
2022-12-11T09:39:13.042Z,34.47
2022-12-11T09:41:42.982Z,32.67
2022-12-11T09:44:15.507Z,39.43
2022-12-11T09:46:43.533Z,34.37
2022-12-11T09:49:41.290Z,34.80
2022-12-11T09:52:15.765Z,34.13
2022-12-11T09:54:50.538Z,34.47
2022-12-11T09:57:25.828Z,35.13
2022-12-11T10:00:05.556Z,41.70
2022-12-11T10:02:50.733Z,38.20
2022-12-11T10:05:20.240Z,53.53
2022-12-11T10:08:17.225Z,44.27
2022-12-11T10:10:54.208Z,34.63
2022-12-11T10:14:11.550Z,34.20
2022-12-11T10:16:46.645Z,29.63
2022-12-11T10:19:20.447Z,26.83
2022-12-11T10:21:51.576Z,30.83
2022-12-11T10:25:05.652Z,30.07
2022-12-11T10:27:22.307Z,31.17
2022-12-11T10:33:07.855Z,33.03
2022-12-11T10:38:45.215Z,30.97
2022-12-11T10:41:17.027Z,26.67
2022-12-11T10:43:46.353Z,31.53
2022-12-11T10:46:20.470Z,30.47
2022-12-11T10:48:54.676Z,32.37
2022-12-11T10:51:24.275Z,28.13
2022-12-11T10:54:02.627Z,27.13
2022-12-11T10:56:35.127Z,27.33
2022-12-11T10:59:02.325Z,28.80
2022-12-11T11:01:34.865Z,28.13
2022-12-11T11:04:15.326Z,26.17
2022-12-11T11:06:47.207Z,28.57
2022-12-11T11:09:30.612Z,28.20
2022-12-11T11:11:57.504Z,29.80
2022-12-11T11:14:24.237Z,26.13
2022-12-11T11:16:58.419Z,30.47
2022-12-11T11:19:29.498Z,26.80
2022-12-11T11:22:04.969Z,29.40
2022-12-11T11:24:43.437Z,31.53
2022-12-11T11:27:28.552Z,28.17
2022-12-11T11:29:59.172Z,28.37
2022-12-11T11:32:39.021Z,27.53
2022-12-11T11:35:17.512Z,27.50
2022-12-11T11:38:09.589Z,26.30
2022-12-11T11:41:04.796Z,25.63
2022-12-11T11:43:43.271Z,25.37
2022-12-11T11:46:12.964Z,26.13
2022-12-11T11:48:48.623Z,24.77
2022-12-11T11:51:55.530Z,24.13
2022-12-11T11:54:33.733Z,26.23
2022-12-11T11:57:11.575Z,22.87
2022-12-11T11:59:49.927Z,56.10
2022-12-11T12:02:18.545Z,36.07
2022-12-11T12:04:51.572Z,41.63
2022-12-11T12:07:18.464Z,36.90
2022-12-11T12:09:57.306Z,37.43
2022-12-11T12:13:03.418Z,27.07
2022-12-11T12:15:57.709Z,26.63
2022-12-11T12:18:45.498Z,27.07
2022-12-11T12:21:33.827Z,29.57
2022-12-11T12:24:12.286Z,23.93
2022-12-11T12:26:47.647Z,23.27
2022-12-11T12:29:17.623Z,26.00
2022-12-11T12:32:00.920Z,30.07
2022-12-11T12:34:54.264Z,24.07
2022-12-11T12:37:30.179Z,22.23
2022-12-11T12:40:02.205Z,23.70
2022-12-11T12:42:40.666Z,25.93
2022-12-11T12:45:07.354Z,24.03
2022-12-11T12:47:36.017Z,22.47
2022-12-11T12:50:03.918Z,24.00
2022-12-11T12:52:39.760Z,28.03
2022-12-11T12:55:28.808Z,30.93
2022-12-11T12:58:00.668Z,27.20
2022-12-11T13:00:38.692Z,25.73
2022-12-11T13:03:17.181Z,21.53
2022-12-11T13:05:55.466Z,21.87
2022-12-11T13:08:34.791Z,26.07
2022-12-11T13:11:06.056Z,29.43
2022-12-11T13:13:39.944Z,24.23
2022-12-11T13:16:15.851Z,27.57
2022-12-11T13:18:45.813Z,26.60
2022-12-11T13:21:35.901Z,24.70
2022-12-11T13:24:25.658Z,28.40
2022-12-11T13:26:52.435Z,28.73
2022-12-11T13:29:45.662Z,28.43
2022-12-11T13:32:18.708Z,26.83
2022-12-11T13:34:55.556Z,25.17
2022-12-11T13:37:47.499Z,22.57
2022-12-11T13:40:25.915Z,25.37
2022-12-11T13:43:15.951Z,40.60
2022-12-11T13:45:42.693Z,42.90
2022-12-11T13:48:29.775Z,36.53
2022-12-11T13:50:58.240Z,30.73
2022-12-11T13:53:25.424Z,29.07
2022-12-11T13:56:05.790Z,28.70
2022-12-11T13:58:39.129Z,31.00
2022-12-11T14:01:18.893Z,34.00
2022-12-11T14:03:58.162Z,27.67
2022-12-11T14:06:28.056Z,25.97
2022-12-11T14:08:59.029Z,29.00
2022-12-11T14:11:36.313Z,30.33
2022-12-11T14:14:06.765Z,27.60
2022-12-11T14:16:33.968Z,31.70
2022-12-11T14:19:08.615Z,29.40
2022-12-11T14:21:37.462Z,29.77
2022-12-11T14:24:06.641Z,26.27
2022-12-11T14:26:35.071Z,30.03
2022-12-11T14:29:02.988Z,25.53
2022-12-11T14:31:31.724Z,28.47
2022-12-11T14:34:06.845Z,24.60
2022-12-11T14:36:36.055Z,25.03
2022-12-11T14:39:07.682Z,26.47
2022-12-11T14:42:03.045Z,28.87
2022-12-11T14:44:33.576Z,24.53
2022-12-11T14:47:23.532Z,25.00
2022-12-11T14:50:07.913Z,24.40
2022-12-11T14:52:42.471Z,24.77
2022-12-11T14:55:24.544Z,24.47
2022-12-11T14:57:57.189Z,25.37
2022-12-11T15:00:27.568Z,27.43
2022-12-11T15:03:06.764Z,25.20
2022-12-11T15:05:40.651Z,26.33
2022-12-11T15:08:10.843Z,29.80
2022-12-11T15:10:41.545Z,26.53
2022-12-11T15:13:09.440Z,24.73
2022-12-11T15:15:46.656Z,24.30
2022-12-11T15:18:21.693Z,24.40
2022-12-11T15:20:58.346Z,25.97
2022-12-11T15:23:25.434Z,30.70
2022-12-11T15:25:58.110Z,30.97
2022-12-11T15:28:35.899Z,33.30
2022-12-11T15:31:06.545Z,29.03
2022-12-11T15:33:34.708Z,26.47
2022-12-11T15:36:06.865Z,23.33
2022-12-11T15:38:41.200Z,26.07
2022-12-11T15:41:17.128Z,22.37
2022-12-11T15:43:44.875Z,23.87
2022-12-11T15:46:11.672Z,27.33
2022-12-11T15:48:38.500Z,30.00
2022-12-11T15:51:05.498Z,27.00
2022-12-11T15:53:32.244Z,26.37
2022-12-11T15:55:59.576Z,28.77
2022-12-11T15:58:27.400Z,28.97
2022-12-11T16:00:54.377Z,24.07
2022-12-11T16:03:22.775Z,25.33
2022-12-11T16:05:51.436Z,24.93
2022-12-11T16:08:21.344Z,22.63
2022-12-11T16:10:48.767Z,30.47
2022-12-11T16:13:15.484Z,24.20
2022-12-11T16:15:45.552Z,23.70
2022-12-11T16:18:15.751Z,24.97
2022-12-11T16:20:44.611Z,27.53
2022-12-11T16:23:12.938Z,30.43
2022-12-11T16:25:41.904Z,31.10
2022-12-11T16:28:11.060Z,32.33
2022-12-11T16:30:38.383Z,35.43
2022-12-11T16:33:12.917Z,44.97
2022-12-11T16:35:42.488Z,28.57
2022-12-11T16:38:10.263Z,32.03
2022-12-11T16:40:38.254Z,25.93
2022-12-11T16:43:05.427Z,27.83
2022-12-11T16:45:32.633Z,29.47
2022-12-11T16:48:05.282Z,32.13
2022-12-11T16:50:32.468Z,33.30
2022-12-11T16:52:59.399Z,27.27
2022-12-11T16:55:26.524Z,31.20
2022-12-11T16:57:53.508Z,35.93
2022-12-11T17:00:21.123Z,33.53
2022-12-11T17:02:48.529Z,34.77
2022-12-11T17:05:15.481Z,30.87
2022-12-11T17:07:42.258Z,30.77
2022-12-11T17:10:09.173Z,32.10
2022-12-11T17:12:36.015Z,41.10
2022-12-11T17:15:03.673Z,30.93
2022-12-11T17:17:31.124Z,35.40
2022-12-11T17:19:57.998Z,44.33
2022-12-11T17:22:25.269Z,42.70
2022-12-11T17:24:52.185Z,43.47
2022-12-11T17:27:20.110Z,35.70
2022-12-11T17:29:49.600Z,42.80
2022-12-11T17:32:17.664Z,42.73
2022-12-11T17:34:45.653Z,45.50
2022-12-11T17:37:12.408Z,43.53
2022-12-11T17:39:39.157Z,46.87
2022-12-11T17:42:27.344Z,50.17
2022-12-11T17:44:55.637Z,46.77
2022-12-11T17:47:22.798Z,44.87
2022-12-11T17:49:49.595Z,45.07
2022-12-11T17:52:16.581Z,42.37
2022-12-11T17:54:43.646Z,40.90
2022-12-11T17:57:10.356Z,43.13
2022-12-11T17:59:37.870Z,36.70
2022-12-11T18:02:04.671Z,40.10
2022-12-11T18:04:31.519Z,32.50
2022-12-11T18:06:58.859Z,38.60
2022-12-11T18:09:25.718Z,43.03
2022-12-11T18:11:53.017Z,46.07
2022-12-11T18:14:19.732Z,39.27
2022-12-11T18:16:46.398Z,40.00
2022-12-11T18:19:13.940Z,39.70
2022-12-11T18:21:45.648Z,42.13
2022-12-11T18:24:12.526Z,38.63
2022-12-11T18:26:42.069Z,38.23
2022-12-11T18:29:17.785Z,37.80
2022-12-11T18:31:44.884Z,35.37
2022-12-11T18:34:11.704Z,40.10
2022-12-11T18:36:40.734Z,32.03
2022-12-11T18:39:07.739Z,41.23
2022-12-11T18:41:36.386Z,37.93
2022-12-11T18:44:09.697Z,35.50
2022-12-11T18:46:37.519Z,35.13
2022-12-11T18:49:04.276Z,44.17
2022-12-11T18:51:31.169Z,31.37
2022-12-11T18:53:58.057Z,32.93
2022-12-11T18:56:25.905Z,35.13
2022-12-11T18:58:52.698Z,40.60
2022-12-11T19:01:24.687Z,46.57
2022-12-11T19:03:58.831Z,38.00
2022-12-11T19:06:30.386Z,43.03
2022-12-11T19:08:58.204Z,35.23
2022-12-11T19:11:27.426Z,37.37
2022-12-11T19:13:58.639Z,41.10
2022-12-11T19:16:29.842Z,32.07
2022-12-11T19:19:02.133Z,41.93
2022-12-11T19:21:28.893Z,35.23
2022-12-11T19:23:55.712Z,34.30
2022-12-11T19:26:24.152Z,38.47
2022-12-11T19:28:51.554Z,34.90
2022-12-11T19:31:22.098Z,34.63
2022-12-11T19:33:49.606Z,30.40
2022-12-11T19:36:19.024Z,33.93
2022-12-11T19:38:46.280Z,32.57
2022-12-11T19:41:21.712Z,40.37
2022-12-11T19:43:49.731Z,38.77
2022-12-11T19:46:18.043Z,35.30
2022-12-11T19:48:45.180Z,36.00
2022-12-11T19:51:17.497Z,43.53
2022-12-11T19:53:45.247Z,35.10
2022-12-11T19:56:13.183Z,40.30
2022-12-11T19:58:41.784Z,35.67
2022-12-11T20:01:09.841Z,44.47
2022-12-11T20:03:36.869Z,40.17
2022-12-11T20:06:08.549Z,45.17
2022-12-11T20:08:44.646Z,38.30
2022-12-11T20:11:17.996Z,39.63
2022-12-11T20:13:47.130Z,42.37
2022-12-11T20:16:14.536Z,41.00
2022-12-11T20:18:41.862Z,42.80
2022-12-11T20:21:11.884Z,50.27
2022-12-11T20:23:38.834Z,55.50
2022-12-11T20:26:19.810Z,78.83
2022-12-11T20:28:50.119Z,53.87
2022-12-11T20:31:20.685Z,47.87
2022-12-11T20:33:49.238Z,50.33
2022-12-11T20:36:17.454Z,45.57
2022-12-11T20:38:44.277Z,49.47
2022-12-11T20:41:17.390Z,52.97
2022-12-11T20:43:45.539Z,50.07
2022-12-11T20:46:15.493Z,54.50
2022-12-11T20:48:43.647Z,46.97
2022-12-11T20:51:12.816Z,48.83
2022-12-11T20:53:40.506Z,45.33
2022-12-11T20:56:16.599Z,48.97
2022-12-11T20:58:44.360Z,54.17
2022-12-11T21:01:22.965Z,53.20
2022-12-11T21:03:49.983Z,54.23
2022-12-11T21:06:32.735Z,57.67
2022-12-11T21:09:06.573Z,54.37
2022-12-11T21:11:33.407Z,54.07
2022-12-11T21:14:00.255Z,49.87
2022-12-11T21:16:27.691Z,64.00
2022-12-11T21:18:58.807Z,56.90
2022-12-11T21:21:25.750Z,54.07
2022-12-11T21:23:52.722Z,51.77
2022-12-11T21:26:19.961Z,56.17
2022-12-11T21:28:46.828Z,61.23
2022-12-11T21:31:17.163Z,46.23
2022-12-11T21:33:44.468Z,45.20
2022-12-11T21:36:13.170Z,49.40
2022-12-11T21:38:41.729Z,64.43
2022-12-11T21:41:15.807Z,58.10
2022-12-11T21:44:14.633Z,58.63
2022-12-11T21:46:30.851Z,62.83
2022-12-11T21:48:57.626Z,58.40
2022-12-11T21:51:34.083Z,61.13
2022-12-11T21:54:05.162Z,59.00
2022-12-11T21:56:32.249Z,52.40
2022-12-11T21:58:58.982Z,61.70
2022-12-11T22:01:31.473Z,51.07
2022-12-11T22:03:59.419Z,54.83
2022-12-11T22:06:26.100Z,50.93
2022-12-11T22:08:52.969Z,58.07
2022-12-11T22:11:23.605Z,51.53
2022-12-11T22:13:50.364Z,51.03
2022-12-11T22:16:17.402Z,56.17
2022-12-11T22:18:44.144Z,52.23
2022-12-11T22:21:11.266Z,51.47
2022-12-11T22:23:42.152Z,57.47
2022-12-11T22:26:10.022Z,55.57
2022-12-11T22:28:36.701Z,56.43
2022-12-11T22:31:03.564Z,53.77
2022-12-11T22:33:30.302Z,53.03
2022-12-11T22:35:58.321Z,58.90
2022-12-11T22:38:25.778Z,57.53
2022-12-11T22:40:53.810Z,52.80
2022-12-11T22:43:20.841Z,50.20
2022-12-11T22:45:47.830Z,56.50
2022-12-11T22:48:15.134Z,57.33
2022-12-11T22:50:42.048Z,49.07
2022-12-11T22:53:09.247Z,54.00
2022-12-11T22:55:39.125Z,53.90
2022-12-11T22:58:06.840Z,53.10
2022-12-11T23:00:33.826Z,55.47
2022-12-11T23:03:00.845Z,52.13
2022-12-11T23:05:27.862Z,46.73
2022-12-11T23:07:54.682Z,52.07
2022-12-11T23:10:21.611Z,45.83
2022-12-11T23:12:48.300Z,55.97
2022-12-11T23:15:15.276Z,45.87
2022-12-11T23:17:42.056Z,48.80
2022-12-11T23:20:09.535Z,50.63
2022-12-11T23:22:36.373Z,53.57
2022-12-11T23:25:03.326Z,52.50
2022-12-11T23:27:30.025Z,45.47
2022-12-11T23:29:56.670Z,49.50
2022-12-11T23:32:23.327Z,50.03
2022-12-11T23:34:49.988Z,38.30
2022-12-11T23:37:16.970Z,46.97
2022-12-11T23:39:43.830Z,46.53
2022-12-11T23:42:10.547Z,50.43
2022-12-11T23:44:37.327Z,51.13
2022-12-11T23:47:04.090Z,50.53
2022-12-11T23:49:30.954Z,46.97
2022-12-11T23:51:57.603Z,46.73
2022-12-11T23:54:24.520Z,44.33
2022-12-11T23:56:51.301Z,47.43
2022-12-11T23:59:18.027Z,37.60
